sensor_id;sensor_type;location;lat;lon;timestamp;P1;durP1;ratioP1;P2;durP2;ratioP2
5054;SDS011;13829;48.990;8.346;2023-02-28T00:01:20;2.80;;;2.40;;
5054;SDS011;13829;48.990;8.346;2023-02-28T00:03:47;3.27;;;2.70;;
5054;SDS011;13829;48.990;8.346;2023-02-28T00:06:14;3.07;;;2.70;;
5054;SDS011;13829;48.990;8.346;2023-02-28T00:08:41;3.57;;;2.90;;
5054;SDS011;13829;48.990;8.346;2023-02-28T00:11:11;3.47;;;2.40;;
5054;SDS011;13829;48.990;8.346;2023-02-28T00:13:40;3.13;;;2.70;;
5054;SDS011;13829;48.990;8.346;2023-02-28T00:16:11;2.90;;;2.60;;
5054;SDS011;13829;48.990;8.346;2023-02-28T00:18:45;6.63;;;3.03;;
5054;SDS011;13829;48.990;8.346;2023-02-28T00:21:14;3.20;;;2.60;;
5054;SDS011;13829;48.990;8.346;2023-02-28T00:23:42;3.87;;;2.60;;
5054;SDS011;13829;48.990;8.346;2023-02-28T00:26:10;3.20;;;2.60;;
5054;SDS011;13829;48.990;8.346;2023-02-28T00:28:37;3.87;;;2.60;;
5054;SDS011;13829;48.990;8.346;2023-02-28T00:31:04;3.03;;;2.60;;
5054;SDS011;13829;48.990;8.346;2023-02-28T00:33:31;3.30;;;2.57;;
5054;SDS011;13829;48.990;8.346;2023-02-28T00:36:03;3.67;;;2.97;;
5054;SDS011;13829;48.990;8.346;2023-02-28T00:38:32;3.23;;;2.70;;
5054;SDS011;13829;48.990;8.346;2023-02-28T00:40:59;3.47;;;2.70;;
5054;SDS011;13829;48.990;8.346;2023-02-28T00:43:31;3.93;;;2.80;;
5054;SDS011;13829;48.990;8.346;2023-02-28T00:45:59;3.27;;;2.60;;
5054;SDS011;13829;48.990;8.346;2023-02-28T00:48:26;4.37;;;2.80;;
5054;SDS011;13829;48.990;8.346;2023-02-28T00:50:54;3.23;;;2.63;;
5054;SDS011;13829;48.990;8.346;2023-02-28T00:53:21;3.07;;;2.77;;
5054;SDS011;13829;48.990;8.346;2023-02-28T00:55:48;2.93;;;2.60;;
5054;SDS011;13829;48.990;8.346;2023-02-28T00:58:15;3.13;;;2.70;;
5054;SDS011;13829;48.990;8.346;2023-02-28T01:00:43;3.37;;;2.60;;
5054;SDS011;13829;48.990;8.346;2023-02-28T01:03:14;3.40;;;2.73;;
5054;SDS011;13829;48.990;8.346;2023-02-28T01:05:42;3.10;;;2.80;;
5054;SDS011;13829;48.990;8.346;2023-02-28T01:08:10;4.73;;;2.60;;
5054;SDS011;13829;48.990;8.346;2023-02-28T01:10:37;2.60;;;2.40;;
5054;SDS011;13829;48.990;8.346;2023-02-28T01:13:04;3.47;;;2.93;;
5054;SDS011;13829;48.990;8.346;2023-02-28T01:15:31;3.73;;;2.87;;
5054;SDS011;13829;48.990;8.346;2023-02-28T01:18:00;3.80;;;3.03;;
5054;SDS011;13829;48.990;8.346;2023-02-28T01:20:27;3.07;;;2.67;;
5054;SDS011;13829;48.990;8.346;2023-02-28T01:22:54;3.77;;;2.83;;
5054;SDS011;13829;48.990;8.346;2023-02-28T01:25:21;2.93;;;2.63;;
5054;SDS011;13829;48.990;8.346;2023-02-28T01:27:47;4.90;;;2.70;;
5054;SDS011;13829;48.990;8.346;2023-02-28T01:30:16;4.70;;;2.70;;
5054;SDS011;13829;48.990;8.346;2023-02-28T01:32:43;3.13;;;2.70;;
5054;SDS011;13829;48.990;8.346;2023-02-28T01:35:12;3.80;;;2.63;;
5054;SDS011;13829;48.990;8.346;2023-02-28T01:37:39;3.57;;;2.63;;
5054;SDS011;13829;48.990;8.346;2023-02-28T01:40:06;3.37;;;2.67;;
5054;SDS011;13829;48.990;8.346;2023-02-28T01:42:36;3.87;;;3.20;;
5054;SDS011;13829;48.990;8.346;2023-02-28T01:45:08;4.77;;;3.27;;
5054;SDS011;13829;48.990;8.346;2023-02-28T01:47:52;3.67;;;2.77;;
5054;SDS011;13829;48.990;8.346;2023-02-28T01:50:27;3.47;;;2.57;;
5054;SDS011;13829;48.990;8.346;2023-02-28T01:53:01;3.53;;;2.63;;
5054;SDS011;13829;48.990;8.346;2023-02-28T01:55:35;3.83;;;2.67;;
5054;SDS011;13829;48.990;8.346;2023-02-28T01:58:04;4.37;;;3.00;;
5054;SDS011;13829;48.990;8.346;2023-02-28T02:00:34;3.60;;;2.70;;
5054;SDS011;13829;48.990;8.346;2023-02-28T02:03:05;4.40;;;3.07;;
5054;SDS011;13829;48.990;8.346;2023-02-28T02:05:38;3.37;;;3.00;;
5054;SDS011;13829;48.990;8.346;2023-02-28T02:08:13;3.07;;;2.77;;
5054;SDS011;13829;48.990;8.346;2023-02-28T02:10:45;3.17;;;2.53;;
5054;SDS011;13829;48.990;8.346;2023-02-28T02:13:27;4.33;;;3.20;;
5054;SDS011;13829;48.990;8.346;2023-02-28T02:16:20;2.67;;;2.47;;
5054;SDS011;13829;48.990;8.346;2023-02-28T02:19:07;3.70;;;2.80;;
5054;SDS011;13829;48.990;8.346;2023-02-28T02:22:13;4.27;;;2.93;;
5054;SDS011;13829;48.990;8.346;2023-02-28T02:25:11;3.13;;;2.70;;
5054;SDS011;13829;48.990;8.346;2023-02-28T02:31:04;4.93;;;3.10;;
5054;SDS011;13829;48.990;8.346;2023-02-28T02:37:13;4.00;;;2.90;;
5054;SDS011;13829;48.990;8.346;2023-02-28T02:39:58;3.33;;;2.77;;
5054;SDS011;13829;48.990;8.346;2023-02-28T02:42:37;5.50;;;3.00;;
5054;SDS011;13829;48.990;8.346;2023-02-28T02:45:12;5.17;;;3.17;;
5054;SDS011;13829;48.990;8.346;2023-02-28T02:47:45;4.27;;;3.00;;
5054;SDS011;13829;48.990;8.346;2023-02-28T02:50:17;5.10;;;3.20;;
5054;SDS011;13829;48.990;8.346;2023-02-28T02:52:51;3.50;;;2.70;;
5054;SDS011;13829;48.990;8.346;2023-02-28T02:55:24;5.47;;;3.20;;
5054;SDS011;13829;48.990;8.346;2023-02-28T02:57:52;3.77;;;3.00;;
5054;SDS011;13829;48.990;8.346;2023-02-28T03:00:25;5.97;;;3.40;;
5054;SDS011;13829;48.990;8.346;2023-02-28T03:02:59;3.83;;;3.00;;
5054;SDS011;13829;48.990;8.346;2023-02-28T03:05:30;5.13;;;3.00;;
5054;SDS011;13829;48.990;8.346;2023-02-28T03:08:05;4.60;;;3.03;;
5054;SDS011;13829;48.990;8.346;2023-02-28T03:10:34;5.27;;;3.10;;
5054;SDS011;13829;48.990;8.346;2023-02-28T03:19:28;4.30;;;3.20;;
5054;SDS011;13829;48.990;8.346;2023-02-28T03:22:17;4.30;;;3.47;;
5054;SDS011;13829;48.990;8.346;2023-02-28T03:25:06;5.10;;;3.00;;
5054;SDS011;13829;48.990;8.346;2023-02-28T03:27:45;3.47;;;2.97;;
5054;SDS011;13829;48.990;8.346;2023-02-28T03:30:31;5.07;;;2.93;;
5054;SDS011;13829;48.990;8.346;2023-02-28T03:33:08;3.90;;;3.20;;
5054;SDS011;13829;48.990;8.346;2023-02-28T03:35:41;3.80;;;3.27;;
5054;SDS011;13829;48.990;8.346;2023-02-28T03:38:16;4.30;;;3.27;;
5054;SDS011;13829;48.990;8.346;2023-02-28T03:40:51;4.40;;;3.30;;
5054;SDS011;13829;48.990;8.346;2023-02-28T03:43:26;5.10;;;3.53;;
5054;SDS011;13829;48.990;8.346;2023-02-28T03:46:01;4.60;;;3.40;;
5054;SDS011;13829;48.990;8.346;2023-02-28T03:48:36;5.10;;;3.80;;
5054;SDS011;13829;48.990;8.346;2023-02-28T03:51:10;3.77;;;3.30;;
5054;SDS011;13829;48.990;8.346;2023-02-28T03:53:44;3.83;;;3.10;;
5054;SDS011;13829;48.990;8.346;2023-02-28T03:56:18;4.70;;;3.67;;
5054;SDS011;13829;48.990;8.346;2023-02-28T03:58:49;4.83;;;3.90;;
5054;SDS011;13829;48.990;8.346;2023-02-28T04:01:25;5.17;;;3.40;;
5054;SDS011;13829;48.990;8.346;2023-02-28T04:03:59;4.70;;;3.93;;
5054;SDS011;13829;48.990;8.346;2023-02-28T04:06:27;4.27;;;3.33;;
5054;SDS011;13829;48.990;8.346;2023-02-28T04:08:58;3.50;;;3.20;;
5054;SDS011;13829;48.990;8.346;2023-02-28T04:11:27;4.37;;;3.60;;
5054;SDS011;13829;48.990;8.346;2023-02-28T04:13:59;5.10;;;3.87;;
5054;SDS011;13829;48.990;8.346;2023-02-28T04:16:27;4.43;;;3.50;;
5054;SDS011;13829;48.990;8.346;2023-02-28T04:18:54;6.97;;;4.00;;
5054;SDS011;13829;48.990;8.346;2023-02-28T04:21:26;6.60;;;4.53;;
5054;SDS011;13829;48.990;8.346;2023-02-28T04:23:54;5.73;;;4.20;;
5054;SDS011;13829;48.990;8.346;2023-02-28T04:26:26;6.13;;;3.63;;
5054;SDS011;13829;48.990;8.346;2023-02-28T04:28:55;4.70;;;3.63;;
5054;SDS011;13829;48.990;8.346;2023-02-28T04:31:23;4.40;;;4.00;;
5054;SDS011;13829;48.990;8.346;2023-02-28T04:33:50;4.70;;;3.47;;
5054;SDS011;13829;48.990;8.346;2023-02-28T04:36:17;6.13;;;4.20;;
5054;SDS011;13829;48.990;8.346;2023-02-28T04:38:44;7.17;;;4.57;;
5054;SDS011;13829;48.990;8.346;2023-02-28T04:41:12;5.00;;;3.67;;
5054;SDS011;13829;48.990;8.346;2023-02-28T04:43:41;5.50;;;4.13;;
5054;SDS011;13829;48.990;8.346;2023-02-28T04:46:08;4.43;;;3.70;;
5054;SDS011;13829;48.990;8.346;2023-02-28T04:48:37;5.20;;;4.10;;
5054;SDS011;13829;48.990;8.346;2023-02-28T04:51:06;5.43;;;4.20;;
5054;SDS011;13829;48.990;8.346;2023-02-28T04:53:36;7.57;;;4.47;;
5054;SDS011;13829;48.990;8.346;2023-02-28T04:56:05;5.20;;;3.87;;
5054;SDS011;13829;48.990;8.346;2023-02-28T04:58:34;4.53;;;3.50;;
5054;SDS011;13829;48.990;8.346;2023-02-28T05:01:03;5.47;;;3.90;;
5054;SDS011;13829;48.990;8.346;2023-02-28T05:03:37;4.60;;;3.73;;
5054;SDS011;13829;48.990;8.346;2023-02-28T05:06:05;5.63;;;4.13;;
5054;SDS011;13829;48.990;8.346;2023-02-28T05:08:32;5.90;;;4.20;;
5054;SDS011;13829;48.990;8.346;2023-02-28T05:11:00;4.60;;;4.03;;
5054;SDS011;13829;48.990;8.346;2023-02-28T05:13:27;5.07;;;4.13;;
5054;SDS011;13829;48.990;8.346;2023-02-28T05:15:54;5.77;;;3.63;;
5054;SDS011;13829;48.990;8.346;2023-02-28T05:18:23;5.03;;;4.30;;
5054;SDS011;13829;48.990;8.346;2023-02-28T05:20:50;5.50;;;4.20;;
5054;SDS011;13829;48.990;8.346;2023-02-28T05:23:17;5.97;;;4.37;;
5054;SDS011;13829;48.990;8.346;2023-02-28T05:25:48;5.20;;;3.97;;
5054;SDS011;13829;48.990;8.346;2023-02-28T05:28:16;5.33;;;4.60;;
5054;SDS011;13829;48.990;8.346;2023-02-28T05:30:44;5.13;;;4.63;;
5054;SDS011;13829;48.990;8.346;2023-02-28T05:33:11;4.83;;;4.27;;
5054;SDS011;13829;48.990;8.346;2023-02-28T05:35:40;5.90;;;4.37;;
5054;SDS011;13829;48.990;8.346;2023-02-28T05:38:08;7.03;;;4.67;;
5054;SDS011;13829;48.990;8.346;2023-02-28T05:40:35;5.93;;;4.20;;
5054;SDS011;13829;48.990;8.346;2023-02-28T05:43:05;4.87;;;4.37;;
5054;SDS011;13829;48.990;8.346;2023-02-28T05:45:36;5.27;;;4.70;;
5054;SDS011;13829;48.990;8.346;2023-02-28T05:48:03;5.93;;;4.50;;
5054;SDS011;13829;48.990;8.346;2023-02-28T05:50:31;4.50;;;4.10;;
5054;SDS011;13829;48.990;8.346;2023-02-28T05:52:59;7.00;;;4.83;;
5054;SDS011;13829;48.990;8.346;2023-02-28T05:55:26;6.30;;;4.40;;
5054;SDS011;13829;48.990;8.346;2023-02-28T05:57:53;6.13;;;4.50;;
5054;SDS011;13829;48.990;8.346;2023-02-28T06:00:21;7.93;;;4.90;;
5054;SDS011;13829;48.990;8.346;2023-02-28T06:02:48;5.43;;;4.30;;
5054;SDS011;13829;48.990;8.346;2023-02-28T06:05:17;7.23;;;4.87;;
5054;SDS011;13829;48.990;8.346;2023-02-28T06:07:44;6.60;;;4.87;;
5054;SDS011;13829;48.990;8.346;2023-02-28T06:10:12;6.20;;;5.07;;
5054;SDS011;13829;48.990;8.346;2023-02-28T06:12:40;6.47;;;4.87;;
5054;SDS011;13829;48.990;8.346;2023-02-28T06:15:09;7.43;;;5.07;;
5054;SDS011;13829;48.990;8.346;2023-02-28T06:17:39;8.47;;;5.37;;
5054;SDS011;13829;48.990;8.346;2023-02-28T06:20:07;9.50;;;4.90;;
5054;SDS011;13829;48.990;8.346;2023-02-28T06:22:37;6.67;;;4.50;;
5054;SDS011;13829;48.990;8.346;2023-02-28T06:25:05;5.93;;;4.80;;
5054;SDS011;13829;48.990;8.346;2023-02-28T06:27:35;8.00;;;4.50;;
5054;SDS011;13829;48.990;8.346;2023-02-28T06:30:03;6.03;;;4.83;;
5054;SDS011;13829;48.990;8.346;2023-02-28T06:32:30;9.30;;;4.80;;
5054;SDS011;13829;48.990;8.346;2023-02-28T06:34:57;10.50;;;4.70;;
5054;SDS011;13829;48.990;8.346;2023-02-28T06:37:24;8.10;;;4.93;;
5054;SDS011;13829;48.990;8.346;2023-02-28T06:39:52;9.37;;;4.60;;
5054;SDS011;13829;48.990;8.346;2023-02-28T06:42:20;7.10;;;4.53;;
5054;SDS011;13829;48.990;8.346;2023-02-28T06:44:51;9.27;;;5.43;;
5054;SDS011;13829;48.990;8.346;2023-02-28T06:47:18;7.37;;;5.10;;
5054;SDS011;13829;48.990;8.346;2023-02-28T06:49:45;6.43;;;4.70;;
5054;SDS011;13829;48.990;8.346;2023-02-28T06:52:12;7.13;;;5.20;;
5054;SDS011;13829;48.990;8.346;2023-02-28T06:54:39;6.70;;;5.07;;
5054;SDS011;13829;48.990;8.346;2023-02-28T06:57:06;5.73;;;4.63;;
5054;SDS011;13829;48.990;8.346;2023-02-28T06:59:34;7.83;;;4.70;;
5054;SDS011;13829;48.990;8.346;2023-02-28T07:02:02;6.27;;;4.63;;
5054;SDS011;13829;48.990;8.346;2023-02-28T07:04:31;7.37;;;5.13;;
5054;SDS011;13829;48.990;8.346;2023-02-28T07:06:58;5.40;;;4.60;;
5054;SDS011;13829;48.990;8.346;2023-02-28T07:09:25;8.43;;;5.50;;
5054;SDS011;13829;48.990;8.346;2023-02-28T07:11:54;8.33;;;4.73;;
5054;SDS011;13829;48.990;8.346;2023-02-28T07:14:22;6.97;;;5.40;;
5054;SDS011;13829;48.990;8.346;2023-02-28T07:16:49;7.77;;;5.40;;
5054;SDS011;13829;48.990;8.346;2023-02-28T07:19:17;8.17;;;5.93;;
5054;SDS011;13829;48.990;8.346;2023-02-28T07:21:44;6.43;;;4.93;;
5054;SDS011;13829;48.990;8.346;2023-02-28T07:24:11;8.40;;;4.83;;
5054;SDS011;13829;48.990;8.346;2023-02-28T07:26:40;6.97;;;5.20;;
5054;SDS011;13829;48.990;8.346;2023-02-28T07:29:07;6.27;;;5.33;;
5054;SDS011;13829;48.990;8.346;2023-02-28T07:31:34;7.57;;;5.60;;
5054;SDS011;13829;48.990;8.346;2023-02-28T07:34:01;6.60;;;5.47;;
5054;SDS011;13829;48.990;8.346;2023-02-28T07:36:30;8.70;;;5.43;;
5054;SDS011;13829;48.990;8.346;2023-02-28T07:38:57;10.20;;;5.20;;
5054;SDS011;13829;48.990;8.346;2023-02-28T07:41:24;6.60;;;5.10;;
5054;SDS011;13829;48.990;8.346;2023-02-28T07:43:53;8.57;;;5.70;;
5054;SDS011;13829;48.990;8.346;2023-02-28T07:46:20;9.50;;;5.87;;
5054;SDS011;13829;48.990;8.346;2023-02-28T07:48:47;8.47;;;5.97;;
5054;SDS011;13829;48.990;8.346;2023-02-28T07:51:14;6.13;;;5.07;;
5054;SDS011;13829;48.990;8.346;2023-02-28T07:53:42;5.77;;;4.80;;
5054;SDS011;13829;48.990;8.346;2023-02-28T07:56:09;6.90;;;5.50;;
5054;SDS011;13829;48.990;8.346;2023-02-28T07:58:36;11.20;;;6.80;;
5054;SDS011;13829;48.990;8.346;2023-02-28T08:01:06;9.37;;;5.60;;
5054;SDS011;13829;48.990;8.346;2023-02-28T08:03:35;7.10;;;5.30;;
5054;SDS011;13829;48.990;8.346;2023-02-28T08:06:03;7.30;;;5.37;;
5054;SDS011;13829;48.990;8.346;2023-02-28T08:08:31;8.13;;;5.57;;
5054;SDS011;13829;48.990;8.346;2023-02-28T08:11:00;7.10;;;5.23;;
5054;SDS011;13829;48.990;8.346;2023-02-28T08:13:29;7.20;;;4.67;;
5054;SDS011;13829;48.990;8.346;2023-02-28T08:15:56;7.73;;;5.67;;
5054;SDS011;13829;48.990;8.346;2023-02-28T08:18:23;8.53;;;5.63;;
5054;SDS011;13829;48.990;8.346;2023-02-28T08:20:50;9.77;;;5.10;;
5054;SDS011;13829;48.990;8.346;2023-02-28T08:23:17;11.23;;;7.30;;
5054;SDS011;13829;48.990;8.346;2023-02-28T08:25:44;8.10;;;5.43;;
5054;SDS011;13829;48.990;8.346;2023-02-28T08:28:19;7.70;;;6.00;;
5054;SDS011;13829;48.990;8.346;2023-02-28T08:30:46;8.07;;;5.40;;
5054;SDS011;13829;48.990;8.346;2023-02-28T08:33:14;6.83;;;5.67;;
5054;SDS011;13829;48.990;8.346;2023-02-28T08:35:40;7.53;;;5.50;;
5054;SDS011;13829;48.990;8.346;2023-02-28T08:38:07;7.20;;;5.47;;
5054;SDS011;13829;48.990;8.346;2023-02-28T08:40:34;7.37;;;5.40;;
5054;SDS011;13829;48.990;8.346;2023-02-28T08:43:01;7.13;;;5.53;;
5054;SDS011;13829;48.990;8.346;2023-02-28T08:45:30;7.77;;;5.83;;
5054;SDS011;13829;48.990;8.346;2023-02-28T08:47:57;8.57;;;5.70;;
5054;SDS011;13829;48.990;8.346;2023-02-28T08:50:23;7.47;;;5.73;;
5054;SDS011;13829;48.990;8.346;2023-02-28T08:52:50;8.37;;;5.60;;
5054;SDS011;13829;48.990;8.346;2023-02-28T08:55:17;6.90;;;6.10;;
5054;SDS011;13829;48.990;8.346;2023-02-28T08:57:44;6.90;;;5.57;;
5054;SDS011;13829;48.990;8.346;2023-02-28T09:00:12;6.63;;;5.70;;
5054;SDS011;13829;48.990;8.346;2023-02-28T09:02:41;7.77;;;6.13;;
5054;SDS011;13829;48.990;8.346;2023-02-28T09:05:08;9.00;;;6.17;;
5054;SDS011;13829;48.990;8.346;2023-02-28T09:07:36;7.87;;;5.70;;
5054;SDS011;13829;48.990;8.346;2023-02-28T09:10:03;7.57;;;5.83;;
5054;SDS011;13829;48.990;8.346;2023-02-28T09:12:32;8.13;;;6.83;;
5054;SDS011;13829;48.990;8.346;2023-02-28T09:15:00;9.93;;;5.90;;
5054;SDS011;13829;48.990;8.346;2023-02-28T09:17:28;10.37;;;6.47;;
5054;SDS011;13829;48.990;8.346;2023-02-28T09:19:56;8.43;;;5.70;;
5054;SDS011;13829;48.990;8.346;2023-02-28T09:22:23;8.60;;;6.63;;
5054;SDS011;13829;48.990;8.346;2023-02-28T09:24:50;7.30;;;6.30;;
5054;SDS011;13829;48.990;8.346;2023-02-28T09:27:17;7.40;;;5.77;;
5054;SDS011;13829;48.990;8.346;2023-02-28T09:29:44;8.07;;;6.80;;
5054;SDS011;13829;48.990;8.346;2023-02-28T09:32:11;7.90;;;6.30;;
5054;SDS011;13829;48.990;8.346;2023-02-28T09:34:38;7.20;;;6.07;;
5054;SDS011;13829;48.990;8.346;2023-02-28T09:37:06;10.40;;;6.80;;
5054;SDS011;13829;48.990;8.346;2023-02-28T09:39:33;9.87;;;6.50;;
5054;SDS011;13829;48.990;8.346;2023-02-28T09:42:00;8.37;;;6.83;;
5054;SDS011;13829;48.990;8.346;2023-02-28T09:44:30;8.73;;;6.33;;
5054;SDS011;13829;48.990;8.346;2023-02-28T09:47:05;9.40;;;7.10;;
5054;SDS011;13829;48.990;8.346;2023-02-28T09:49:44;7.43;;;6.57;;
5054;SDS011;13829;48.990;8.346;2023-02-28T09:52:15;9.87;;;7.00;;
5054;SDS011;13829;48.990;8.346;2023-02-28T09:54:46;10.93;;;7.07;;
5054;SDS011;13829;48.990;8.346;2023-02-28T09:57:14;8.67;;;7.00;;
5054;SDS011;13829;48.990;8.346;2023-02-28T10:00:01;29.33;;;8.47;;
5054;SDS011;13829;48.990;8.346;2023-02-28T10:02:56;9.37;;;7.10;;
5054;SDS011;13829;48.990;8.346;2023-02-28T10:05:43;10.50;;;7.20;;
5054;SDS011;13829;48.990;8.346;2023-02-28T10:08:21;10.00;;;7.43;;
5054;SDS011;13829;48.990;8.346;2023-02-28T10:10:55;9.83;;;7.63;;
5054;SDS011;13829;48.990;8.346;2023-02-28T10:13:26;9.30;;;7.57;;
5054;SDS011;13829;48.990;8.346;2023-02-28T10:16:01;9.27;;;7.23;;
5054;SDS011;13829;48.990;8.346;2023-02-28T10:18:38;12.63;;;7.90;;
5054;SDS011;13829;48.990;8.346;2023-02-28T10:21:15;8.60;;;7.40;;
5054;SDS011;13829;48.990;8.346;2023-02-28T10:23:52;9.83;;;8.13;;
5054;SDS011;13829;48.990;8.346;2023-02-28T10:26:30;12.30;;;8.17;;
5054;SDS011;13829;48.990;8.346;2023-02-28T10:28:59;10.40;;;7.03;;
5054;SDS011;13829;48.990;8.346;2023-02-28T10:31:27;8.97;;;7.63;;
5054;SDS011;13829;48.990;8.346;2023-02-28T10:33:54;10.60;;;7.33;;
5054;SDS011;13829;48.990;8.346;2023-02-28T10:36:21;10.37;;;6.93;;
5054;SDS011;13829;48.990;8.346;2023-02-28T10:38:49;9.43;;;7.90;;
5054;SDS011;13829;48.990;8.346;2023-02-28T10:41:26;10.43;;;7.83;;
5054;SDS011;13829;48.990;8.346;2023-02-28T10:44:13;12.33;;;8.00;;
5054;SDS011;13829;48.990;8.346;2023-02-28T10:46:46;11.90;;;7.90;;
5054;SDS011;13829;48.990;8.346;2023-02-28T10:49:15;11.33;;;7.70;;
5054;SDS011;13829;48.990;8.346;2023-02-28T10:51:48;8.93;;;7.37;;
5054;SDS011;13829;48.990;8.346;2023-02-28T10:54:20;10.37;;;7.37;;
5054;SDS011;13829;48.990;8.346;2023-02-28T10:57:08;10.57;;;8.23;;
5054;SDS011;13829;48.990;8.346;2023-02-28T10:59:44;9.43;;;8.30;;
5054;SDS011;13829;48.990;8.346;2023-02-28T11:02:28;11.83;;;8.13;;
5054;SDS011;13829;48.990;8.346;2023-02-28T11:04:59;10.23;;;7.60;;
5054;SDS011;13829;48.990;8.346;2023-02-28T11:07:26;18.17;;;8.63;;
5054;SDS011;13829;48.990;8.346;2023-02-28T11:09:55;11.13;;;7.97;;
5054;SDS011;13829;48.990;8.346;2023-02-28T11:12:26;9.53;;;7.73;;
5054;SDS011;13829;48.990;8.346;2023-02-28T11:14:58;8.53;;;7.27;;
5054;SDS011;13829;48.990;8.346;2023-02-28T11:17:31;11.37;;;7.90;;
5054;SDS011;13829;48.990;8.346;2023-02-28T11:20:00;9.17;;;7.63;;
5054;SDS011;13829;48.990;8.346;2023-02-28T11:22:33;9.30;;;7.97;;
5054;SDS011;13829;48.990;8.346;2023-02-28T11:25:06;8.60;;;7.50;;
5054;SDS011;13829;48.990;8.346;2023-02-28T11:27:45;11.43;;;8.53;;
5054;SDS011;13829;48.990;8.346;2023-02-28T11:30:26;11.97;;;8.37;;
5054;SDS011;13829;48.990;8.346;2023-02-28T11:33:00;9.80;;;8.30;;
5054;SDS011;13829;48.990;8.346;2023-02-28T11:35:44;9.37;;;7.63;;
5054;SDS011;13829;48.990;8.346;2023-02-28T11:38:14;10.20;;;8.37;;
5054;SDS011;13829;48.990;8.346;2023-02-28T11:40:43;10.43;;;8.03;;
5054;SDS011;13829;48.990;8.346;2023-02-28T11:43:27;10.77;;;8.13;;
5054;SDS011;13829;48.990;8.346;2023-02-28T11:46:17;10.33;;;7.97;;
5054;SDS011;13829;48.990;8.346;2023-02-28T11:48:57;12.20;;;9.07;;
5054;SDS011;13829;48.990;8.346;2023-02-28T11:51:43;10.27;;;8.10;;
5054;SDS011;13829;48.990;8.346;2023-02-28T11:54:23;10.17;;;7.97;;
5054;SDS011;13829;48.990;8.346;2023-02-28T11:57:03;10.83;;;8.20;;
5054;SDS011;13829;48.990;8.346;2023-02-28T11:59:52;10.70;;;8.90;;
5054;SDS011;13829;48.990;8.346;2023-02-28T12:02:29;12.43;;;7.67;;
5054;SDS011;13829;48.990;8.346;2023-02-28T12:05:20;10.53;;;8.20;;
5054;SDS011;13829;48.990;8.346;2023-02-28T12:08:00;10.03;;;8.03;;
5054;SDS011;13829;48.990;8.346;2023-02-28T12:10:44;8.87;;;7.40;;
5054;SDS011;13829;48.990;8.346;2023-02-28T12:13:32;9.83;;;7.77;;
5054;SDS011;13829;48.990;8.346;2023-02-28T12:16:25;10.77;;;8.10;;
5054;SDS011;13829;48.990;8.346;2023-02-28T12:19:17;8.80;;;7.90;;
5054;SDS011;13829;48.990;8.346;2023-02-28T12:21:53;12.40;;;9.00;;
5054;SDS011;13829;48.990;8.346;2023-02-28T12:24:58;12.07;;;8.80;;
5054;SDS011;13829;48.990;8.346;2023-02-28T12:28:16;9.83;;;8.27;;
5054;SDS011;13829;48.990;8.346;2023-02-28T12:30:53;10.53;;;9.10;;
5054;SDS011;13829;48.990;8.346;2023-02-28T12:33:31;11.53;;;8.37;;
5054;SDS011;13829;48.990;8.346;2023-02-28T12:36:05;10.33;;;9.23;;
5054;SDS011;13829;48.990;8.346;2023-02-28T12:38:44;9.63;;;8.63;;
5054;SDS011;13829;48.990;8.346;2023-02-28T12:41:17;11.67;;;9.00;;
5054;SDS011;13829;48.990;8.346;2023-02-28T12:43:50;10.53;;;8.30;;
5054;SDS011;13829;48.990;8.346;2023-02-28T12:46:28;12.73;;;9.07;;
5054;SDS011;13829;48.990;8.346;2023-02-28T12:49:02;9.47;;;8.47;;
5054;SDS011;13829;48.990;8.346;2023-02-28T12:51:41;9.93;;;8.87;;
5054;SDS011;13829;48.990;8.346;2023-02-28T12:54:14;12.17;;;9.17;;
5054;SDS011;13829;48.990;8.346;2023-02-28T12:56:53;11.83;;;8.30;;
5054;SDS011;13829;48.990;8.346;2023-02-28T12:59:34;11.90;;;8.93;;
5054;SDS011;13829;48.990;8.346;2023-02-28T13:02:21;12.33;;;8.90;;
5054;SDS011;13829;48.990;8.346;2023-02-28T13:11:31;11.27;;;8.73;;
5054;SDS011;13829;48.990;8.346;2023-02-28T13:14:05;10.83;;;9.17;;
5054;SDS011;13829;48.990;8.346;2023-02-28T13:16:59;9.70;;;8.70;;
5054;SDS011;13829;48.990;8.346;2023-02-28T13:19:37;11.67;;;8.80;;
5054;SDS011;13829;48.990;8.346;2023-02-28T13:22:20;10.57;;;8.10;;
5054;SDS011;13829;48.990;8.346;2023-02-28T13:35:12;12.83;;;8.73;;
5054;SDS011;13829;48.990;8.346;2023-02-28T13:38:12;10.73;;;9.00;;
5054;SDS011;13829;48.990;8.346;2023-02-28T13:40:48;9.43;;;8.43;;
5054;SDS011;13829;48.990;8.346;2023-02-28T13:43:16;11.57;;;9.07;;
5054;SDS011;13829;48.990;8.346;2023-02-28T13:48:39;10.53;;;8.97;;
5054;SDS011;13829;48.990;8.346;2023-02-28T13:54:26;11.33;;;8.50;;
5054;SDS011;13829;48.990;8.346;2023-02-28T13:57:10;10.60;;;9.33;;
5054;SDS011;13829;48.990;8.346;2023-02-28T13:59:55;12.20;;;8.90;;
5054;SDS011;13829;48.990;8.346;2023-02-28T14:05:42;9.93;;;8.93;;
5054;SDS011;13829;48.990;8.346;2023-02-28T14:08:12;10.80;;;9.70;;
5054;SDS011;13829;48.990;8.346;2023-02-28T14:10:47;10.23;;;9.20;;
5054;SDS011;13829;48.990;8.346;2023-02-28T14:16:09;11.13;;;9.77;;
5054;SDS011;13829;48.990;8.346;2023-02-28T14:18:39;11.87;;;10.17;;
5054;SDS011;13829;48.990;8.346;2023-02-28T14:21:16;13.47;;;9.13;;
5054;SDS011;13829;48.990;8.346;2023-02-28T14:24:01;11.37;;;9.83;;
5054;SDS011;13829;48.990;8.346;2023-02-28T14:27:29;12.53;;;9.33;;
5054;SDS011;13829;48.990;8.346;2023-02-28T14:33:23;12.03;;;9.67;;
5054;SDS011;13829;48.990;8.346;2023-02-28T14:36:04;10.73;;;9.57;;
5054;SDS011;13829;48.990;8.346;2023-02-28T14:38:40;11.10;;;9.43;;
5054;SDS011;13829;48.990;8.346;2023-02-28T14:41:16;13.70;;;9.80;;
5054;SDS011;13829;48.990;8.346;2023-02-28T14:43:57;13.33;;;10.47;;
5054;SDS011;13829;48.990;8.346;2023-02-28T14:46:28;10.30;;;9.20;;
5054;SDS011;13829;48.990;8.346;2023-02-28T14:49:04;11.90;;;9.80;;
5054;SDS011;13829;48.990;8.346;2023-02-28T14:51:38;11.10;;;10.00;;
5054;SDS011;13829;48.990;8.346;2023-02-28T14:54:05;12.03;;;9.93;;
5054;SDS011;13829;48.990;8.346;2023-02-28T14:56:33;11.50;;;10.17;;
5054;SDS011;13829;48.990;8.346;2023-02-28T14:59:05;11.30;;;9.77;;
5054;SDS011;13829;48.990;8.346;2023-02-28T15:01:50;11.67;;;9.70;;
5054;SDS011;13829;48.990;8.346;2023-02-28T15:04:26;11.07;;;9.87;;
5054;SDS011;13829;48.990;8.346;2023-02-28T15:07:09;10.27;;;9.20;;
5054;SDS011;13829;48.990;8.346;2023-02-28T15:09:39;12.67;;;10.47;;
5054;SDS011;13829;48.990;8.346;2023-02-28T15:12:06;12.17;;;9.93;;
5054;SDS011;13829;48.990;8.346;2023-02-28T15:14:38;12.10;;;9.77;;
5054;SDS011;13829;48.990;8.346;2023-02-28T15:17:11;13.93;;;10.57;;
5054;SDS011;13829;48.990;8.346;2023-02-28T15:19:50;11.30;;;9.17;;
5054;SDS011;13829;48.990;8.346;2023-02-28T15:22:20;10.60;;;9.53;;
5054;SDS011;13829;48.990;8.346;2023-02-28T15:24:56;11.33;;;9.47;;
5054;SDS011;13829;48.990;8.346;2023-02-28T15:27:24;10.57;;;9.30;;
5054;SDS011;13829;48.990;8.346;2023-02-28T15:29:59;13.33;;;9.90;;
5054;SDS011;13829;48.990;8.346;2023-02-28T15:32:33;10.70;;;9.27;;
5054;SDS011;13829;48.990;8.346;2023-02-28T15:35:17;11.27;;;9.33;;
5054;SDS011;13829;48.990;8.346;2023-02-28T15:37:54;12.67;;;9.80;;
5054;SDS011;13829;48.990;8.346;2023-02-28T15:40:23;15.37;;;11.70;;
5054;SDS011;13829;48.990;8.346;2023-02-28T15:42:58;15.93;;;11.77;;
5054;SDS011;13829;48.990;8.346;2023-02-28T15:45:36;16.77;;;12.73;;
5054;SDS011;13829;48.990;8.346;2023-02-28T15:48:13;17.17;;;12.63;;
5054;SDS011;13829;48.990;8.346;2023-02-28T15:50:46;13.50;;;10.60;;
5054;SDS011;13829;48.990;8.346;2023-02-28T15:53:19;14.60;;;10.47;;
5054;SDS011;13829;48.990;8.346;2023-02-28T15:55:54;13.97;;;11.10;;
5054;SDS011;13829;48.990;8.346;2023-02-28T15:58:26;11.87;;;9.47;;
5054;SDS011;13829;48.990;8.346;2023-02-28T16:03:51;10.93;;;9.53;;
5054;SDS011;13829;48.990;8.346;2023-02-28T16:06:29;10.77;;;9.30;;
5054;SDS011;13829;48.990;8.346;2023-02-28T16:09:08;13.47;;;10.33;;
5054;SDS011;13829;48.990;8.346;2023-02-28T16:11:39;14.83;;;12.27;;
5054;SDS011;13829;48.990;8.346;2023-02-28T16:14:12;12.73;;;10.70;;
5054;SDS011;13829;48.990;8.346;2023-02-28T16:16:45;10.60;;;9.50;;